createdAt,value
2023-03-22T00:00:56.658Z,1.00
2023-03-22T00:03:24.333Z,1.00
2023-03-22T00:05:57.175Z,1.00
2023-03-22T00:08:23.843Z,1.00
2023-03-22T00:10:50.515Z,1.00
2023-03-22T00:13:17.176Z,1.00
2023-03-22T00:15:49.113Z,1.00
2023-03-22T00:18:16.559Z,1.00
2023-03-22T00:20:50.335Z,1.00
2023-03-22T00:23:17.405Z,1.00
2023-03-22T00:25:45.186Z,1.00
2023-03-22T00:28:12.811Z,1.00
2023-03-22T00:30:39.983Z,1.00
2023-03-22T00:33:07.082Z,1.00
2023-03-22T00:35:33.906Z,1.00
2023-03-22T00:38:05.926Z,1.00
2023-03-22T00:40:33.570Z,1.00
2023-03-22T00:43:00.262Z,1.00
2023-03-22T00:45:27.014Z,1.00
2023-03-22T00:47:53.764Z,1.00
2023-03-22T00:50:20.486Z,1.00
2023-03-22T00:52:47.170Z,1.00
2023-03-22T00:55:13.799Z,1.00
2023-03-22T00:57:40.480Z,1.00
2023-03-22T01:00:11.796Z,1.00
2023-03-22T01:02:38.468Z,1.00
2023-03-22T01:05:06.685Z,1.00
2023-03-22T01:07:33.526Z,1.00
2023-03-22T01:10:00.361Z,1.00
2023-03-22T01:12:27.078Z,1.00
2023-03-22T01:14:53.731Z,1.00
2023-03-22T01:17:20.394Z,1.00
2023-03-22T01:19:47.060Z,1.00
2023-03-22T01:22:13.727Z,1.00
2023-03-22T01:24:40.403Z,1.00
2023-03-22T01:27:07.185Z,1.00
2023-03-22T01:29:35.359Z,1.00
2023-03-22T01:32:02.052Z,1.00
2023-03-22T01:34:28.682Z,1.00
2023-03-22T01:36:55.521Z,1.00
2023-03-22T01:39:22.220Z,1.00
2023-03-22T01:41:48.940Z,1.00
2023-03-22T01:44:20.621Z,1.00
2023-03-22T01:46:49.778Z,1.00
2023-03-22T01:49:22.125Z,1.00
2023-03-22T01:51:50.397Z,1.00
2023-03-22T01:54:27.286Z,1.00
2023-03-22T01:56:54.003Z,1.00
2023-03-22T01:59:20.945Z,1.00
2023-03-22T02:01:47.643Z,1.00
2023-03-22T02:04:19.995Z,1.00
2023-03-22T02:06:47.578Z,1.00
2023-03-22T02:09:17.339Z,1.00
2023-03-22T02:11:49.160Z,1.00
2023-03-22T02:14:31.070Z,1.00
2023-03-22T02:17:23.616Z,1.00
2023-03-22T02:20:10.367Z,1.00
2023-03-22T02:22:49.989Z,1.00
2023-03-22T02:25:54.523Z,1.00
2023-03-22T02:28:35.379Z,1.00
2023-03-22T02:31:20.694Z,1.00
2023-03-22T02:34:27.640Z,1.00
2023-03-22T02:37:33.714Z,1.00
2023-03-22T02:40:09.992Z,1.00
2023-03-22T02:42:56.693Z,1.00
2023-03-22T02:45:52.612Z,1.00
2023-03-22T02:48:52.907Z,1.00
2023-03-22T02:51:48.737Z,1.00
2023-03-22T02:54:28.764Z,1.00
2023-03-22T02:57:22.124Z,1.00
2023-03-22T02:59:50.331Z,1.00
2023-03-22T03:02:19.881Z,1.00
2023-03-22T03:04:48.724Z,1.00
2023-03-22T03:07:20.467Z,1.00
2023-03-22T03:09:47.422Z,1.00
2023-03-22T03:12:26.287Z,1.00
2023-03-22T03:14:53.138Z,1.00
2023-03-22T03:17:41.292Z,1.00
2023-03-22T03:20:30.069Z,1.00
2023-03-22T03:23:24.398Z,1.00
2023-03-22T03:25:57.919Z,1.00
2023-03-22T03:28:30.131Z,1.00
2023-03-22T03:31:06.622Z,1.00
2023-03-22T03:33:35.651Z,1.00
2023-03-22T03:36:07.349Z,1.00
2023-03-22T03:38:38.010Z,1.00
2023-03-22T03:41:08.450Z,1.00
2023-03-22T03:43:35.434Z,1.00
2023-03-22T03:46:02.335Z,1.00
2023-03-22T03:48:31.200Z,1.00
2023-03-22T03:50:59.546Z,1.00
2023-03-22T03:53:26.213Z,1.00
2023-03-22T03:55:52.896Z,1.00
2023-03-22T03:58:19.559Z,1.00
2023-03-22T04:00:47.078Z,1.00
2023-03-22T04:03:14.305Z,1.00
2023-03-22T04:05:41.351Z,1.00
2023-03-22T04:08:08.406Z,1.00
2023-03-22T04:10:35.389Z,1.00
2023-03-22T04:13:02.000Z,1.00
2023-03-22T04:15:28.663Z,1.00
2023-03-22T04:17:55.352Z,1.00
2023-03-22T04:20:22.006Z,1.00
2023-03-22T04:22:49.105Z,1.00
2023-03-22T04:25:18.082Z,1.00
2023-03-22T04:27:47.258Z,1.00
2023-03-22T04:30:20.069Z,1.00
2023-03-22T04:32:47.433Z,1.00
2023-03-22T04:35:14.514Z,1.00
2023-03-22T04:37:43.011Z,1.00
2023-03-22T04:40:16.398Z,1.00
2023-03-22T04:42:44.156Z,1.00
2023-03-22T04:45:12.391Z,1.00
2023-03-22T04:47:39.302Z,1.00
2023-03-22T04:50:07.436Z,1.00
2023-03-22T04:52:34.074Z,1.00
2023-03-22T04:55:00.841Z,1.00
2023-03-22T04:57:27.532Z,1.00
2023-03-22T04:59:54.246Z,1.00
2023-03-22T05:02:21.184Z,1.00
2023-03-22T05:04:47.856Z,1.00
2023-03-22T05:07:14.670Z,1.00
2023-03-22T05:09:41.363Z,1.00
2023-03-22T05:14:35.201Z,1.00
2023-03-22T05:17:01.874Z,1.00
2023-03-22T05:19:28.984Z,1.00
2023-03-22T05:21:58.701Z,1.00
2023-03-22T05:29:21.457Z,1.00
2023-03-22T05:31:48.584Z,1.00
2023-03-22T05:34:15.368Z,1.00
2023-03-22T05:36:42.111Z,1.00
2023-03-22T05:39:08.969Z,1.00
2023-03-22T05:41:36.813Z,1.00
2023-03-22T05:44:04.855Z,1.00
2023-03-22T05:46:31.886Z,1.00
2023-03-22T05:48:58.630Z,1.00
2023-03-22T05:51:25.637Z,1.00
2023-03-22T05:53:53.574Z,1.00
2023-03-22T05:56:24.670Z,1.00
2023-03-22T05:58:51.954Z,1.00
2023-03-22T06:01:20.606Z,1.00
2023-03-22T06:03:48.548Z,1.00
2023-03-22T06:06:15.859Z,1.00
2023-03-22T06:08:42.968Z,1.00
2023-03-22T06:11:10.125Z,1.00
2023-03-22T06:13:37.603Z,1.00
2023-03-22T06:16:05.879Z,1.00
2023-03-22T06:18:33.228Z,1.00
2023-03-22T06:23:28.031Z,1.00
2023-03-22T06:25:54.809Z,1.00
2023-03-22T06:28:21.874Z,1.00
2023-03-22T06:30:48.616Z,1.00
2023-03-22T06:33:15.362Z,1.00
2023-03-22T06:35:42.069Z,1.00
2023-03-22T06:38:09.121Z,1.00
2023-03-22T06:40:36.176Z,1.00
2023-03-22T06:43:06.838Z,1.00
2023-03-22T06:45:33.819Z,1.00
2023-03-22T06:48:01.521Z,1.00
2023-03-22T06:50:29.465Z,1.00
2023-03-22T06:52:56.665Z,1.00
2023-03-22T06:55:23.838Z,1.00
2023-03-22T06:57:50.747Z,1.00
2023-03-22T07:00:19.469Z,1.00
2023-03-22T07:02:50.348Z,1.00
2023-03-22T07:05:18.858Z,1.00
2023-03-22T07:07:46.351Z,1.00
2023-03-22T07:10:13.438Z,1.00
2023-03-22T07:12:41.571Z,1.00
2023-03-22T07:15:09.066Z,1.00
2023-03-22T07:17:35.704Z,1.00
2023-03-22T07:20:03.949Z,1.00
2023-03-22T07:22:30.930Z,1.00
2023-03-22T07:27:28.265Z,1.00
2023-03-22T07:32:22.102Z,1.00
2023-03-22T07:34:48.817Z,1.00
2023-03-22T07:37:15.582Z,1.00
2023-03-22T07:39:42.282Z,1.00
2023-03-22T07:42:09.511Z,1.00
2023-03-22T07:44:36.196Z,1.00
2023-03-22T07:47:03.128Z,1.00
2023-03-22T07:49:31.324Z,1.00
2023-03-22T07:51:58.107Z,1.00
2023-03-22T07:54:33.550Z,1.00
2023-03-22T07:57:01.517Z,1.00
2023-03-22T07:59:28.279Z,1.00
2023-03-22T08:01:55.313Z,1.00
2023-03-22T08:04:22.544Z,1.00
2023-03-22T08:06:51.655Z,1.00
2023-03-22T08:09:18.506Z,1.00
2023-03-22T08:11:45.390Z,1.00
2023-03-22T08:14:12.065Z,1.00
2023-03-22T08:16:44.059Z,1.00
2023-03-22T08:19:12.799Z,1.00
2023-03-22T08:24:07.772Z,1.00
2023-03-22T08:26:34.402Z,1.00
2023-03-22T08:29:00.994Z,1.00
2023-03-22T08:33:58.704Z,1.00
2023-03-22T08:36:25.551Z,1.00
2023-03-22T08:41:19.791Z,4.20
2023-03-22T08:43:46.454Z,9.70
2023-03-22T08:46:13.211Z,20.70
2023-03-22T08:48:41.850Z,13.00
2023-03-22T08:51:08.848Z,19.60
2023-03-22T08:56:03.690Z,18.60
2023-03-22T08:58:30.378Z,34.60
2023-03-22T09:00:57.113Z,23.40
2023-03-22T09:03:24.879Z,32.30
2023-03-22T09:05:51.625Z,13.20
2023-03-22T09:08:19.746Z,35.00
2023-03-22T09:10:52.004Z,46.00
2023-03-22T09:13:19.614Z,25.40
2023-03-22T09:15:46.602Z,29.90
2023-03-22T09:18:13.935Z,28.20
2023-03-22T09:20:40.857Z,29.00
2023-03-22T09:23:07.702Z,38.30
2023-03-22T09:25:34.367Z,30.60
2023-03-22T09:28:01.182Z,26.20
2023-03-22T09:30:27.845Z,27.30
2023-03-22T09:32:54.523Z,30.00
2023-03-22T09:35:21.412Z,22.80
2023-03-22T09:37:49.329Z,20.70
2023-03-22T09:40:17.319Z,29.60
2023-03-22T09:42:49.668Z,29.80
2023-03-22T09:45:29.977Z,35.10
2023-03-22T09:47:57.539Z,39.90
2023-03-22T09:50:28.610Z,32.30
2023-03-22T09:52:55.486Z,38.80
2023-03-22T09:55:34.592Z,35.00
2023-03-22T09:58:23.496Z,35.60
2023-03-22T10:01:01.198Z,34.60
2023-03-22T10:03:53.785Z,31.60
2023-03-22T10:06:20.989Z,29.50
2023-03-22T10:09:02.988Z,32.70
2023-03-22T10:12:00.238Z,21.30
2023-03-22T10:14:38.009Z,19.10
2023-03-22T10:17:11.426Z,24.00
2023-03-22T10:20:01.231Z,14.50
2023-03-22T10:22:34.442Z,5.20
2023-03-22T10:25:01.839Z,4.90
2023-03-22T10:27:30.280Z,6.40
2023-03-22T10:30:03.607Z,10.20
2023-03-22T10:32:56.385Z,2.30
2023-03-22T10:35:23.776Z,1.00
2023-03-22T10:37:51.986Z,1.00
2023-03-22T10:40:37.216Z,1.00
2023-03-22T10:43:17.296Z,1.00
2023-03-22T10:45:44.212Z,1.00
2023-03-22T10:48:34.015Z,1.00
2023-03-22T10:51:01.103Z,1.00
2023-03-22T10:53:40.634Z,1.00
2023-03-22T10:56:14.173Z,1.00
2023-03-22T10:58:40.895Z,1.00
2023-03-22T11:01:14.297Z,1.00
2023-03-22T11:03:43.393Z,1.00
2023-03-22T11:06:29.935Z,1.00
2023-03-22T11:09:01.541Z,1.00
2023-03-22T11:11:30.734Z,1.00
2023-03-22T11:14:07.204Z,1.00
2023-03-22T11:16:52.958Z,1.00
2023-03-22T11:19:37.528Z,1.00
2023-03-22T11:22:34.464Z,1.00
2023-03-22T11:25:01.473Z,1.00
2023-03-22T11:27:33.350Z,1.00
2023-03-22T11:30:24.623Z,1.00
2023-03-22T11:33:18.506Z,1.00
2023-03-22T11:35:48.076Z,1.00
2023-03-22T11:38:39.331Z,1.00
2023-03-22T11:41:27.726Z,1.00
2023-03-22T11:44:01.148Z,1.00
2023-03-22T11:46:29.328Z,1.00
2023-03-22T11:49:02.178Z,1.00
2023-03-22T11:51:37.838Z,1.00
2023-03-22T11:54:15.836Z,1.00
2023-03-22T11:56:45.557Z,1.00
2023-03-22T11:59:22.358Z,1.00
2023-03-22T12:01:51.536Z,1.00
2023-03-22T12:04:22.773Z,1.00
2023-03-22T12:06:52.570Z,1.00
2023-03-22T12:09:54.422Z,1.00
2023-03-22T12:12:24.771Z,1.00
2023-03-22T12:15:15.887Z,1.00
2023-03-22T12:17:48.832Z,1.00
2023-03-22T12:20:47.845Z,1.00
2023-03-22T12:23:36.961Z,1.00
2023-03-22T12:26:11.863Z,1.00
2023-03-22T12:28:50.664Z,1.00
2023-03-22T12:31:22.621Z,1.00
2023-03-22T12:33:51.753Z,1.00
2023-03-22T12:36:22.051Z,1.00
2023-03-22T12:38:52.368Z,1.00
2023-03-22T12:41:26.865Z,1.00
2023-03-22T12:44:14.892Z,1.00
2023-03-22T12:47:04.881Z,1.00
2023-03-22T12:49:34.304Z,1.00
2023-03-22T12:52:12.283Z,1.00
2023-03-22T12:54:39.231Z,1.00
2023-03-22T12:57:06.428Z,1.00
2023-03-22T12:59:33.349Z,1.00
2023-03-22T13:02:17.074Z,1.00
2023-03-22T13:04:43.710Z,1.00
2023-03-22T13:07:13.638Z,1.00
2023-03-22T13:09:48.616Z,1.00
2023-03-22T13:12:18.382Z,1.00
2023-03-22T13:14:57.580Z,1.00
2023-03-22T13:20:00.838Z,1.00
2023-03-22T13:22:50.701Z,1.00
2023-03-22T13:25:18.798Z,1.00
2023-03-22T13:27:46.016Z,1.00
2023-03-22T13:30:26.374Z,1.00
2023-03-22T13:33:14.380Z,1.00
2023-03-22T13:35:46.489Z,1.00
2023-03-22T13:38:34.867Z,1.00
2023-03-22T13:41:08.592Z,1.00
2023-03-22T13:43:54.026Z,1.00
2023-03-22T13:46:20.749Z,1.00
2023-03-22T13:48:47.855Z,1.00
2023-03-22T13:51:18.509Z,1.00
2023-03-22T13:53:56.824Z,1.00
2023-03-22T13:56:47.878Z,1.00
2023-03-22T13:59:29.867Z,1.00
2023-03-22T14:02:16.322Z,1.00
2023-03-22T14:04:57.942Z,1.00
2023-03-22T14:07:44.370Z,1.00
2023-03-22T14:10:23.979Z,1.00
2023-03-22T14:13:18.680Z,1.00
2023-03-22T14:15:54.257Z,1.00
2023-03-22T14:18:29.689Z,1.00
2023-03-22T14:21:06.863Z,1.00
